Time;durP1;ratioP1;P1;durP2;ratioP2;P2;SDS_P1;SDS_P2;PMS_P1;PMS_P2;Temp;Humidity;BMP_temperature;BMP_pressure;BME280_temperature;BME280_humidity;BME280_pressure;Samples;Min_cycle;Max_cycle;Signal;HPM_P1;HPM_P2
2022/11/29 00:00:57;;;;;;;;;;;8.20;99.90;;;;;;5046964;28;19973;-69
2022/11/29 00:03:24;;;;;;;;;;;8.10;99.90;;;;;;5030923;28;19933;-68
2022/11/29 00:05:50;;;;;;;;;;;8.20;99.90;;;;;;5048888;28;20021;-67
2022/11/29 00:08:16;;;;;;;;;;;8.20;99.90;;;;;;5049277;28;20361;-71
2022/11/29 00:10:42;;;;;;;;;;;8.10;99.90;;;;;;5031443;28;19925;-67
2022/11/29 00:13:07;;;;;;;;;;;8.10;99.90;;;;;;5067239;28;20065;-67
2022/11/29 00:15:37;;;;;;;;;;;8.10;99.90;;;;;;5048028;28;19935;-68
2022/11/29 00:18:03;;;;;;;;;;;8.10;99.90;;;;;;5049052;28;20477;-69
2022/11/29 00:20:29;;;;;;;;;;;8.00;99.90;;;;;;5049052;28;19932;-68
2022/11/29 00:22:54;;;;;;;;;;;8.10;99.90;;;;;;5048823;27;20322;-67
2022/11/29 00:25:20;;;;;;;;;;;8.10;99.90;;;;;;5050213;28;20334;-67
2022/11/29 00:27:45;;;;;;;;;;;8.10;99.90;;;;;;5048074;28;19993;-69
2022/11/29 00:30:11;;;;;;;;;;;8.00;99.90;;;;;;5049055;28;20295;-67
2022/11/29 00:32:37;;;;;;;;;;;8.10;99.90;;;;;;5036132;28;19925;-71
2022/11/29 00:35:02;;;;;;;;;;;8.00;99.90;;;;;;5030960;28;20067;-68
2022/11/29 00:37:28;;;;;;;;;;;8.00;99.90;;;;;;5048783;28;19925;-68
2022/11/29 00:39:53;;;;;;;;;;;8.00;99.90;;;;;;5048049;28;19929;-68
2022/11/29 00:42:19;;;;;;;;;;;8.00;99.90;;;;;;5014757;28;19936;-67
2022/11/29 00:44:45;;;;;;;;;;;8.00;99.90;;;;;;5048432;28;20289;-70
2022/11/29 00:47:11;;;;;;;;;;;8.00;99.90;;;;;;5064579;28;20345;-68
2022/11/29 00:49:36;;;;;;;;;;;8.10;99.90;;;;;;5049348;28;19952;-68
2022/11/29 00:52:02;;;;;;;;;;;8.00;99.90;;;;;;5051757;28;19984;-68
2022/11/29 00:54:28;;;;;;;;;;;8.00;99.90;;;;;;5048645;28;19936;-67
2022/11/29 00:56:54;;;;;;;;;;;8.00;99.90;;;;;;5062945;28;19925;-68
2022/11/29 00:59:19;;;;;;;;;;;8.00;99.90;;;;;;5063697;28;19990;-68
2022/11/29 01:01:45;;;;;;;;;;;7.90;99.90;;;;;;5051549;27;20016;-72
2022/11/29 01:04:10;;;;;;;;;;;8.00;99.90;;;;;;5044777;27;19964;-67
2022/11/29 01:06:36;;;;;;;;;;;7.90;99.90;;;;;;5030434;28;19949;-68
2022/11/29 01:09:02;;;;;;;;;;;7.90;99.90;;;;;;5030562;28;19940;-68
2022/11/29 01:11:27;;;;;;;;;;;7.90;99.90;;;;;;5060978;28;19924;-68
2022/11/29 01:13:54;;;;;;;;;;;7.90;99.90;;;;;;5031632;28;19932;-69
2022/11/29 01:16:20;;;;;;;;;;;7.80;99.90;;;;;;5048201;28;20016;-68
2022/11/29 01:18:46;;;;;;;;;;;7.90;99.90;;;;;;5027213;28;19978;-68
2022/11/29 01:21:13;;;;;;;;;;;7.80;99.90;;;;;;5047659;28;19969;-70
2022/11/29 01:23:39;;;;;;;;;;;7.80;99.90;;;;;;5047467;28;20405;-68
2022/11/29 01:26:06;;;;;;;;;;;7.90;99.90;;;;;;5041584;28;19929;-67
2022/11/29 01:28:32;;;;;;;;;;;7.80;99.90;;;;;;5014102;28;19939;-68
2022/11/29 01:30:58;;;;;;;;;;;7.80;99.90;;;;;;5046635;28;19928;-68
2022/11/29 01:33:23;;;;;;;;;;;7.80;99.90;;;;;;5063311;28;20293;-74
2022/11/29 01:35:50;;;;;;;;;;;7.80;99.90;;;;;;5043952;27;20388;-68
2022/11/29 01:38:16;;;;;;;;;;;7.80;99.90;;;;;;5035712;28;20393;-67
2022/11/29 01:40:42;;;;;;;;;;;7.80;99.90;;;;;;5047751;28;19931;-67
2022/11/29 01:43:12;;;;;;;;;;;7.80;99.90;;;;;;5029819;28;19932;-66
2022/11/29 01:45:38;;;;;;;;;;;7.80;99.90;;;;;;5030228;28;20043;-68
2022/11/29 01:48:03;;;;;;;;;;;7.80;99.90;;;;;;5047631;28;20326;-68
2022/11/29 01:50:29;;;;;;;;;;;7.80;99.90;;;;;;5051143;28;19972;-67
2022/11/29 01:52:55;;;;;;;;;;;7.80;99.90;;;;;;5046808;28;19925;-67
2022/11/29 01:55:20;;;;;;;;;;;7.80;99.90;;;;;;5013326;28;19929;-67
2022/11/29 01:57:46;;;;;;;;;;;7.80;99.90;;;;;;5063088;28;19932;-67
2022/11/29 02:00:14;;;;;;;;;;;7.80;99.90;;;;;;5047535;28;20348;-67
2022/11/29 02:03:00;;;;;;;;;;;7.80;99.90;;;;;;5030524;27;20309;-67
2022/11/29 02:05:26;;;;;;;;;;;7.80;99.90;;;;;;5029905;28;20027;-68
2022/11/29 02:07:53;;;;;;;;;;;7.80;99.90;;;;;;5048911;28;20008;-68
2022/11/29 02:10:24;;;;;;;;;;;7.80;99.90;;;;;;5061274;28;19933;-67
2022/11/29 02:13:04;;;;;;;;;;;7.80;99.90;;;;;;5066255;28;20369;-67
2022/11/29 02:15:41;;;;;;;;;;;7.80;99.90;;;;;;5037129;28;19925;-68
2022/11/29 02:18:10;;;;;;;;;;;7.80;99.90;;;;;;5050647;28;19928;-68
2022/11/29 02:20:54;;;;;;;;;;;7.80;99.90;;;;;;5033886;28;20316;-68
2022/11/29 02:23:25;;;;;;;;;;;7.80;99.90;;;;;;5049412;28;19928;-68
2022/11/29 02:25:53;;;;;;;;;;;7.80;99.90;;;;;;5050707;28;19929;-67
2022/11/29 02:28:19;;;;;;;;;;;7.70;99.90;;;;;;5048110;28;19993;-67
2022/11/29 02:31:00;;;;;;;;;;;7.80;99.90;;;;;;5059143;28;20366;-68
2022/11/29 02:33:44;;;;;;;;;;;7.70;99.90;;;;;;5057481;28;20016;-68
2022/11/29 02:36:27;;;;;;;;;;;7.80;99.90;;;;;;5029305;28;19932;-67
2022/11/29 02:39:06;;;;;;;;;;;7.80;99.90;;;;;;5029839;28;19925;-67
2022/11/29 02:41:35;;;;;;;;;;;7.70;99.90;;;;;;5025780;28;19933;-70
2022/11/29 02:44:17;;;;;;;;;;;7.80;99.90;;;;;;5055566;28;19924;-68
2022/11/29 02:46:50;;;;;;;;;;;7.70;99.90;;;;;;5058666;28;20392;-68
2022/11/29 02:49:39;;;;;;;;;;;7.70;99.90;;;;;;5057278;28;19948;-69
2022/11/29 02:52:11;;;;;;;;;;;7.70;99.90;;;;;;5028617;28;20266;-69
2022/11/29 02:54:44;;;;;;;;;;;7.70;99.90;;;;;;5026202;28;19937;-67
2022/11/29 02:57:20;;;;;;;;;;;7.70;99.90;;;;;;5049249;27;19925;-68
2022/11/29 03:00:04;;;;;;;;;;;7.70;99.90;;;;;;5008502;28;19932;-68
2022/11/29 03:02:30;;;;;;;;;;;7.70;99.90;;;;;;5064774;28;20381;-70
2022/11/29 03:05:14;;;;;;;;;;;7.70;99.90;;;;;;5042903;28;20024;-68
2022/11/29 03:07:54;;;;;;;;;;;7.60;99.90;;;;;;5038785;28;20369;-67
2022/11/29 03:10:20;;;;;;;;;;;7.70;99.90;;;;;;5008782;28;19925;-67
2022/11/29 03:12:50;;;;;;;;;;;7.70;99.90;;;;;;5050216;28;19933;-67
2022/11/29 03:15:19;;;;;;;;;;;7.70;99.90;;;;;;5056450;28;19929;-68
2022/11/29 03:17:47;;;;;;;;;;;7.70;99.90;;;;;;5063544;27;20281;-67
2022/11/29 03:20:27;;;;;;;;;;;7.70;99.90;;;;;;5046014;28;19972;-67
2022/11/29 03:23:11;;;;;;;;;;;7.70;99.90;;;;;;5032397;28;19925;-68
2022/11/29 03:25:48;;;;;;;;;;;7.70;99.90;;;;;;5065780;28;19935;-68
2022/11/29 03:28:23;;;;;;;;;;;7.70;99.90;;;;;;5037055;28;19925;-67
2022/11/29 03:31:09;;;;;;;;;;;7.70;99.90;;;;;;5042064;28;20423;-67
2022/11/29 03:33:50;;;;;;;;;;;7.70;99.90;;;;;;5064756;28;20048;-67
2022/11/29 03:36:34;;;;;;;;;;;7.60;99.90;;;;;;5032097;28;19974;-67
2022/11/29 03:39:03;;;;;;;;;;;7.60;99.90;;;;;;5041993;28;19925;-68
2022/11/29 03:41:34;;;;;;;;;;;7.60;99.90;;;;;;5049980;28;20005;-71
2022/11/29 03:44:12;;;;;;;;;;;7.60;99.90;;;;;;5062093;28;19925;-67
2022/11/29 03:46:43;;;;;;;;;;;7.60;99.90;;;;;;5065248;28;19974;-67
2022/11/29 03:49:27;;;;;;;;;;;7.60;99.90;;;;;;5049288;28;20271;-72
2022/11/29 03:51:59;;;;;;;;;;;7.60;99.90;;;;;;5051778;27;19984;-68
2022/11/29 03:54:27;;;;;;;;;;;7.60;99.90;;;;;;5053718;28;19925;-68
2022/11/29 03:56:53;;;;;;;;;;;7.60;99.90;;;;;;5048603;28;19990;-68
2022/11/29 03:59:18;;;;;;;;;;;7.60;99.90;;;;;;5031279;28;19976;-69
2022/11/29 04:01:50;;;;;;;;;;;7.60;99.90;;;;;;5031945;28;19947;-68
2022/11/29 04:04:35;;;;;;;;;;;7.60;99.90;;;;;;5043192;28;19925;-67
2022/11/29 04:07:00;;;;;;;;;;;7.60;99.90;;;;;;5055412;28;19933;-70
2022/11/29 04:09:26;;;;;;;;;;;8.30;99.90;;;;;;5033048;27;19936;-68
2022/11/29 04:12:10;;;;;;;;;;;7.60;99.90;;;;;;5063132;28;19932;-68
2022/11/29 04:14:38;;;;;;;;;;;7.60;99.90;;;;;;5031442;28;19925;-68
2022/11/29 04:17:10;;;;;;;;;;;7.60;99.90;;;;;;5051060;28;19933;-67
2022/11/29 04:19:41;;;;;;;;;;;7.60;99.90;;;;;;5048721;28;19972;-67
2022/11/29 04:22:25;;;;;;;;;;;7.60;99.90;;;;;;5049227;28;19977;-67
2022/11/29 04:25:19;;;;;;;;;;;7.60;99.90;;;;;;5031077;28;20343;-67
2022/11/29 04:27:45;;;;;;;;;;;7.60;99.90;;;;;;5031501;28;19931;-68
2022/11/29 04:30:10;;;;;;;;;;;7.60;99.90;;;;;;5068959;28;19929;-67
2022/11/29 04:32:54;;;;;;;;;;;7.60;99.90;;;;;;5048091;28;19935;-67
2022/11/29 04:35:20;;;;;;;;;;;7.50;99.90;;;;;;5023556;28;19975;-67
2022/11/29 04:37:54;;;;;;;;;;;7.50;99.90;;;;;;5031386;28;20588;-71
2022/11/29 04:40:35;;;;;;;;;;;7.50;99.90;;;;;;5048472;28;19925;-68
2022/11/29 04:43:16;;;;;;;;;;;7.50;99.90;;;;;;5053319;28;19940;-67
2022/11/29 04:45:52;;;;;;;;;;;7.50;99.90;;;;;;5059161;28;20389;-68
2022/11/29 04:48:36;;;;;;;;;;;7.50;99.90;;;;;;5030697;28;20073;-68
2022/11/29 04:51:14;;;;;;;;;;;7.50;99.90;;;;;;5064019;28;19937;-68
2022/11/29 04:53:58;;;;;;;;;;;7.50;99.90;;;;;;5031193;28;20259;-68
2022/11/29 04:56:24;;;;;;;;;;;7.40;99.90;;;;;;5064023;28;19928;-67
2022/11/29 04:59:03;;;;;;;;;;;7.40;99.90;;;;;;5031089;28;20235;-68
2022/11/29 05:01:42;;;;;;;;;;;7.40;99.90;;;;;;5048008;28;19929;-66
2022/11/29 05:04:07;;;;;;;;;;;7.40;99.90;;;;;;5047502;28;20194;-69
2022/11/29 05:06:33;;;;;;;;;;;7.30;99.90;;;;;;5031831;28;19925;-68
2022/11/29 05:09:06;;;;;;;;;;;7.40;99.90;;;;;;5048448;28;20401;-68
2022/11/29 05:11:51;;;;;;;;;;;7.30;99.90;;;;;;5047341;28;19950;-66
2022/11/29 05:14:29;;;;;;;;;;;7.30;99.90;;;;;;5048101;28;19940;-67
2022/11/29 05:17:13;;;;;;;;;;;7.30;99.90;;;;;;5048457;28;19931;-66
2022/11/29 05:19:44;;;;;;;;;;;7.30;99.90;;;;;;5021339;28;19924;-66
2022/11/29 05:22:19;;;;;;;;;;;7.30;99.90;;;;;;5048112;28;19929;-67
2022/11/29 05:24:44;;;;;;;;;;;7.30;99.90;;;;;;5047247;28;19970;-68
2022/11/29 05:27:33;;;;;;;;;;;7.20;99.90;;;;;;5048452;28;19929;-67
2022/11/29 05:30:08;;;;;;;;;;;7.20;99.90;;;;;;5046906;28;19924;-68
2022/11/29 05:32:37;;;;;;;;;;;7.20;99.90;;;;;;5049494;28;19925;-68
2022/11/29 05:35:21;;;;;;;;;;;7.20;99.90;;;;;;5030408;28;19939;-67
2022/11/29 05:37:55;;;;;;;;;;;7.30;99.90;;;;;;5063402;28;19925;-69
2022/11/29 05:40:50;;;;;;;;;;;7.20;99.90;;;;;;5046828;28;20023;-70
2022/11/29 05:43:35;;;;;;;;;;;7.20;99.90;;;;;;5038226;28;19945;-66
2022/11/29 05:46:11;;;;;;;;;;;7.20;99.90;;;;;;5024049;28;20326;-67
2022/11/29 05:48:37;;;;;;;;;;;7.10;99.90;;;;;;5047382;28;20016;-67
2022/11/29 05:51:02;;;;;;;;;;;7.10;99.90;;;;;;5047749;28;20019;-70
2022/11/29 05:53:34;;;;;;;;;;;7.20;99.90;;;;;;5045846;28;21702;-71
2022/11/29 05:55:59;;;;;;;;;;;7.10;99.90;;;;;;5064057;28;19948;-67
2022/11/29 05:58:38;;;;;;;;;;;7.10;99.90;;;;;;5030355;28;19925;-70
2022/11/29 06:01:19;;;;;;;;;;;7.10;99.90;;;;;;5056403;28;19973;-67
2022/11/29 06:03:55;;;;;;;;;;;7.10;99.90;;;;;;5029016;28;19925;-69
2022/11/29 06:06:30;;;;;;;;;;;7.10;99.90;;;;;;5061670;28;19951;-67
2022/11/29 06:09:05;;;;;;;;;;;7.00;99.90;;;;;;5047564;28;19996;-68
2022/11/29 06:11:36;;;;;;;;;;;7.00;99.90;;;;;;5058651;28;20352;-68
2022/11/29 06:14:24;;;;;;;;;;;7.00;99.90;;;;;;5062928;28;19933;-68
2022/11/29 06:17:17;;;;;;;;;;;6.90;99.90;;;;;;5061785;28;20364;-68
2022/11/29 06:19:52;;;;;;;;;;;7.00;99.90;;;;;;5031177;28;19928;-67
2022/11/29 06:22:20;;;;;;;;;;;6.90;99.90;;;;;;5030170;28;19925;-67
2022/11/29 06:25:02;;;;;;;;;;;6.90;99.90;;;;;;5042632;28;19925;-69
2022/11/29 06:27:40;;;;;;;;;;;6.90;99.90;;;;;;5053080;28;20417;-66
2022/11/29 06:30:08;;;;;;;;;;;6.90;99.90;;;;;;5053173;27;20371;-66
2022/11/29 06:32:53;;;;;;;;;;;6.90;99.90;;;;;;5031988;28;19929;-68
2022/11/29 06:35:31;;;;;;;;;;;6.90;99.90;;;;;;5021164;28;19932;-66
2022/11/29 06:37:59;;;;;;;;;;;6.80;99.90;;;;;;5021177;28;20066;-68
2022/11/29 06:40:25;;;;;;;;;;;6.90;99.90;;;;;;5056006;27;20015;-66
2022/11/29 06:42:51;;;;;;;;;;;6.90;99.90;;;;;;5037794;28;20389;-66
2022/11/29 06:45:16;;;;;;;;;;;6.90;99.90;;;;;;5034794;28;20068;-67
2022/11/29 06:47:51;;;;;;;;;;;6.90;99.90;;;;;;5026127;28;20297;-67
2022/11/29 06:50:41;;;;;;;;;;;6.90;99.90;;;;;;5033567;28;20151;-67
2022/11/29 06:53:15;;;;;;;;;;;7.00;99.90;;;;;;5043548;28;19983;-67
2022/11/29 06:55:59;;;;;;;;;;;6.90;99.90;;;;;;5041738;28;20031;-67
2022/11/29 06:58:46;;;;;;;;;;;6.90;99.90;;;;;;5044533;28;19971;-67
2022/11/29 07:01:22;;;;;;;;;;;7.00;99.90;;;;;;5040836;27;19936;-67
2022/11/29 07:04:14;;;;;;;;;;;7.00;99.90;;;;;;5037903;27;20357;-68
2022/11/29 07:06:39;;;;;;;;;;;7.00;99.90;;;;;;5011960;28;19925;-67
2022/11/29 07:09:28;;;;;;;;;;;7.10;99.90;;;;;;5060983;27;19929;-67
2022/11/29 07:11:54;;;;;;;;;;;7.10;99.90;;;;;;5033937;28;19972;-68
2022/11/29 07:14:20;;;;;;;;;;;7.10;99.90;;;;;;5046076;28;20369;-67
2022/11/29 07:16:54;;;;;;;;;;;7.20;99.90;;;;;;5049915;28;19928;-67
2022/11/29 07:19:35;;;;;;;;;;;7.20;99.90;;;;;;5050326;28;19929;-68
2022/11/29 07:22:08;;;;;;;;;;;7.20;99.90;;;;;;5065500;28;19928;-68
2022/11/29 07:24:33;;;;;;;;;;;7.30;99.90;;;;;;5032404;28;20001;-68
2022/11/29 07:27:08;;;;;;;;;;;7.30;99.90;;;;;;5050243;28;19928;-67
2022/11/29 07:29:33;;;;;;;;;;;7.20;99.90;;;;;;5059707;28;19972;-69
2022/11/29 07:32:22;;;;;;;;;;;7.30;99.90;;;;;;5064654;28;19967;-70
2022/11/29 07:34:59;;;;;;;;;;;7.80;99.90;;;;;;5038241;28;19928;-68
2022/11/29 07:37:35;;;;;;;;;;;7.30;99.90;;;;;;5054127;28;19968;-71
2022/11/29 07:40:13;;;;;;;;;;;7.20;99.90;;;;;;5025451;28;19924;-68
2022/11/29 07:42:52;;;;;;;;;;;7.30;99.90;;;;;;5039903;28;19933;-67
2022/11/29 07:45:28;;;;;;;;;;;7.30;99.90;;;;;;5039344;28;19932;-67
2022/11/29 07:47:54;;;;;;;;;;;7.30;99.90;;;;;;5032222;28;19929;-67
2022/11/29 07:50:20;;;;;;;;;;;7.20;99.90;;;;;;5048590;27;19940;-67
2022/11/29 07:52:46;;;;;;;;;;;7.20;99.90;;;;;;5031867;27;19968;-69
2022/11/29 07:55:13;;;;;;;;;;;7.20;99.90;;;;;;5031348;28;20424;-68
2022/11/29 07:57:38;;;;;;;;;;;7.10;99.90;;;;;;5004862;28;19969;-66
2022/11/29 08:00:04;;;;;;;;;;;7.20;99.90;;;;;;5008605;28;20615;-69
2022/11/29 08:02:30;;;;;;;;;;;7.10;99.90;;;;;;5000456;28;19929;-67
2022/11/29 08:04:56;;;;;;;;;;;7.10;99.90;;;;;;5007308;28;19976;-67
2022/11/29 08:07:22;;;;;;;;;;;7.10;99.90;;;;;;4993271;28;19952;-67
2022/11/29 08:09:47;;;;;;;;;;;7.20;99.90;;;;;;4999466;28;19930;-66
2022/11/29 08:12:13;;;;;;;;;;;7.10;99.90;;;;;;5033228;28;19925;-68
2022/11/29 08:14:38;;;;;;;;;;;7.20;99.90;;;;;;5040454;28;19931;-67
2022/11/29 08:17:04;;;;;;;;;;;7.20;99.90;;;;;;5009322;28;20024;-70
2022/11/29 08:19:29;;;;;;;;;;;7.20;99.90;;;;;;5003384;28;19974;-68
2022/11/29 08:21:55;;;;;;;;;;;7.30;99.90;;;;;;4986523;28;20546;-67
2022/11/29 08:24:21;;;;;;;;;;;7.30;99.90;;;;;;5003427;28;19940;-78
2022/11/29 08:26:46;;;;;;;;;;;7.20;99.90;;;;;;4996017;28;20021;-69
2022/11/29 08:29:12;;;;;;;;;;;7.30;99.90;;;;;;5013822;28;19932;-66
2022/11/29 08:31:38;;;;;;;;;;;7.30;99.90;;;;;;4993304;28;20004;-67
2022/11/29 08:34:04;;;;;;;;;;;7.30;99.90;;;;;;5003253;28;20660;-66
2022/11/29 08:36:30;;;;;;;;;;;7.30;99.90;;;;;;5008997;28;19947;-65
2022/11/29 08:38:56;;;;;;;;;;;7.30;99.90;;;;;;5002529;28;20344;-66
2022/11/29 08:41:21;;;;;;;;;;;7.30;99.90;;;;;;4998046;28;19925;-66
2022/11/29 08:43:47;;;;;;;;;;;7.30;99.90;;;;;;5007036;28;20348;-66
2022/11/29 08:46:13;;;;;;;;;;;7.30;99.90;;;;;;4992536;28;19934;-65
2022/11/29 08:48:38;;;;;;;;;;;7.30;99.90;;;;;;5008658;28;19941;-64
2022/11/29 08:51:04;;;;;;;;;;;7.30;99.90;;;;;;4994970;28;20008;-65
2022/11/29 08:53:43;;;;;;;;;;;7.40;99.90;;;;;;5035799;28;19926;-65
2022/11/29 08:56:13;;;;;;;;;;;7.40;99.90;;;;;;5001396;28;19936;-66
2022/11/29 08:58:38;;;;;;;;;;;7.50;99.90;;;;;;5002558;28;19967;-67
2022/11/29 09:01:05;;;;;;;;;;;7.50;99.90;;;;;;5019036;28;19984;-65
2022/11/29 09:06:16;;;;;;;;;;;7.60;99.90;;;;;;5004000;28;19969;-65
2022/11/29 09:08:42;;;;;;;;;;;7.50;99.90;;;;;;5011444;28;20516;-64
2022/11/29 09:11:12;;;;;;;;;;;7.60;99.90;;;;;;5004773;28;20003;-68
2022/11/29 09:13:41;;;;;;;;;;;7.60;99.90;;;;;;5008436;28;19937;-66
2022/11/29 09:16:07;;;;;;;;;;;7.60;99.90;;;;;;5007707;28;19979;-64
2022/11/29 09:18:33;;;;;;;;;;;7.60;99.90;;;;;;5011641;28;20340;-66
2022/11/29 09:20:58;;;;;;;;;;;7.60;99.90;;;;;;5007181;28;19925;-69
2022/11/29 09:23:24;;;;;;;;;;;7.60;99.90;;;;;;5008256;28;19982;-65
2022/11/29 09:25:50;;;;;;;;;;;7.60;99.90;;;;;;5008079;28;19933;-67
2022/11/29 09:28:15;;;;;;;;;;;7.70;99.90;;;;;;5007657;28;19930;-65
2022/11/29 09:30:41;;;;;;;;;;;7.70;99.90;;;;;;5039902;28;19926;-65
2022/11/29 09:33:06;;;;;;;;;;;7.70;99.90;;;;;;5006647;28;19925;-66
2022/11/29 09:35:32;;;;;;;;;;;7.80;99.90;;;;;;5036986;28;19930;-66
2022/11/29 09:37:58;;;;;;;;;;;7.80;99.90;;;;;;4998700;28;19937;-66
2022/11/29 09:40:37;;;;;;;;;;;7.90;99.90;;;;;;5003266;28;19979;-67
2022/11/29 09:43:29;;;;;;;;;;;7.80;99.90;;;;;;4997689;28;19930;-65
2022/11/29 09:46:02;;;;;;;;;;;7.90;99.90;;;;;;4999697;28;19933;-68
2022/11/29 09:48:40;;;;;;;;;;;7.90;99.90;;;;;;5002836;28;19930;-66
2022/11/29 09:51:26;;;;;;;;;;;7.90;99.90;;;;;;4998045;28;20296;-69
2022/11/29 09:54:09;;;;;;;;;;;8.00;99.90;;;;;;5027884;28;20006;-66
2022/11/29 09:56:46;;;;;;;;;;;8.00;99.90;;;;;;5039962;28;19947;-65
2022/11/29 09:59:18;;;;;;;;;;;8.10;99.90;;;;;;5037901;28;19952;-65
2022/11/29 10:01:50;;;;;;;;;;;8.10;99.90;;;;;;5062610;27;20339;-65
2022/11/29 10:04:20;;;;;;;;;;;8.10;99.90;;;;;;5038577;28;20276;-66
2022/11/29 10:06:55;;;;;;;;;;;8.20;99.90;;;;;;5016320;28;20366;-67
2022/11/29 10:09:27;;;;;;;;;;;8.20;99.90;;;;;;5051250;27;19928;-65
2022/11/29 10:12:03;;;;;;;;;;;8.30;99.90;;;;;;5044569;28;19925;-65
2022/11/29 10:14:33;;;;;;;;;;;8.30;99.90;;;;;;5048346;28;19978;-66
2022/11/29 10:17:13;;;;;;;;;;;8.30;99.90;;;;;;5061892;27;19999;-65
2022/11/29 10:19:41;;;;;;;;;;;8.40;99.90;;;;;;5040225;28;19925;-65
2022/11/29 10:22:14;;;;;;;;;;;8.40;99.90;;;;;;5035093;28;20347;-65
2022/11/29 10:24:41;;;;;;;;;;;8.40;99.90;;;;;;5041851;28;20294;-67
2022/11/29 10:27:16;;;;;;;;;;;8.50;99.90;;;;;;5037466;28;19929;-64
2022/11/29 10:29:41;;;;;;;;;;;8.50;99.90;;;;;;5052736;27;19935;-65
2022/11/29 10:32:12;;;;;;;;;;;8.50;99.90;;;;;;5044169;28;20003;-65
2022/11/29 10:34:38;;;;;;;;;;;8.60;99.90;;;;;;5006294;28;19981;-66
2022/11/29 10:37:07;;;;;;;;;;;8.70;99.90;;;;;;5043444;28;19925;-65
2022/11/29 10:39:38;;;;;;;;;;;8.70;99.90;;;;;;5044735;27;19928;-65
2022/11/29 10:42:47;;;;;;;;;;;8.70;99.90;;;;;;5048931;28;19925;-65
2022/11/29 10:44:50;;;;;;;;;;;8.80;99.90;;;;;;5039988;28;19968;-64
2022/11/29 10:47:15;;;;;;;;;;;8.80;99.90;;;;;;5029844;28;20337;-64
2022/11/29 10:49:41;;;;;;;;;;;8.80;99.90;;;;;;5024774;28;19929;-65
2022/11/29 10:52:17;;;;;;;;;;;8.80;99.90;;;;;;5047428;28;19930;-66
2022/11/29 10:54:42;;;;;;;;;;;8.80;99.90;;;;;;5007797;28;19978;-70
2022/11/29 10:57:13;;;;;;;;;;;8.90;99.90;;;;;;5016482;28;19925;-68
2022/11/29 10:59:39;;;;;;;;;;;8.90;99.90;;;;;;5058791;28;20404;-69
2022/11/29 11:02:15;;;;;;;;;;;8.90;99.90;;;;;;5050780;28;19925;-77
2022/11/29 11:04:45;;;;;;;;;;;8.90;99.90;;;;;;5064900;27;19924;-68
2022/11/29 11:07:30;;;;;;;;;;;9.00;99.90;;;;;;5037119;27;19936;-69
2022/11/29 11:09:56;;;;;;;;;;;9.00;99.90;;;;;;5040038;27;19926;-71
2022/11/29 11:12:25;;;;;;;;;;;9.00;99.90;;;;;;5064277;28;20039;-67
2022/11/29 11:14:50;;;;;;;;;;;9.00;99.90;;;;;;5038720;27;20376;-68
2022/11/29 11:17:21;;;;;;;;;;;8.90;99.90;;;;;;5032849;28;19933;-67
2022/11/29 11:20:13;;;;;;;;;;;9.00;99.90;;;;;;5050176;28;20366;-68
2022/11/29 11:22:39;;;;;;;;;;;9.00;99.90;;;;;;5049357;28;19977;-67
2022/11/29 11:25:07;;;;;;;;;;;9.00;99.90;;;;;;5049472;28;19986;-67
2022/11/29 11:27:36;;;;;;;;;;;8.90;99.90;;;;;;5065201;28;19928;-67
2022/11/29 11:30:03;;;;;;;;;;;8.90;99.90;;;;;;5047007;28;19983;-72
2022/11/29 11:32:29;;;;;;;;;;;8.90;99.90;;;;;;5048147;28;20192;-67
2022/11/29 11:34:59;;;;;;;;;;;9.00;99.90;;;;;;5031363;27;19928;-68
2022/11/29 11:37:24;;;;;;;;;;;9.00;99.90;;;;;;5029894;28;19967;-68
2022/11/29 11:39:57;;;;;;;;;;;9.00;99.90;;;;;;5010268;28;19981;-67
2022/11/29 11:42:37;;;;;;;;;;;8.90;99.90;;;;;;5065286;28;20027;-71
2022/11/29 11:45:20;;;;;;;;;;;8.90;99.90;;;;;;5045934;28;20402;-64
2022/11/29 11:47:49;;;;;;;;;;;8.90;99.90;;;;;;5021373;28;19929;-67
2022/11/29 11:50:16;;;;;;;;;;;8.90;99.90;;;;;;5031254;28;19928;-67
2022/11/29 11:52:43;;;;;;;;;;;8.90;99.90;;;;;;5045676;28;19929;-67
2022/11/29 11:55:22;;;;;;;;;;;8.90;99.90;;;;;;5046373;27;19979;-73
2022/11/29 11:57:59;;;;;;;;;;;8.90;99.90;;;;;;5044280;28;19942;-71
2022/11/29 12:00:43;;;;;;;;;;;8.90;99.90;;;;;;5055125;28;19970;-70
2022/11/29 12:03:21;;;;;;;;;;;8.90;99.90;;;;;;5048135;28;19956;-68
2022/11/29 12:05:48;;;;;;;;;;;8.90;99.90;;;;;;5037125;28;19925;-66
2022/11/29 12:08:14;;;;;;;;;;;8.80;99.90;;;;;;5052886;28;19931;-81
2022/11/29 12:10:40;;;;;;;;;;;8.90;99.90;;;;;;5036041;28;20011;-68
2022/11/29 12:13:13;;;;;;;;;;;8.90;99.90;;;;;;5038123;28;20373;-67
2022/11/29 12:15:40;;;;;;;;;;;8.80;99.90;;;;;;5042570;27;19926;-68
2022/11/29 12:18:15;;;;;;;;;;;8.80;99.90;;;;;;5042170;27;19926;-66
2022/11/29 12:20:46;;;;;;;;;;;8.80;99.90;;;;;;5048608;28;20005;-67
2022/11/29 12:23:12;;;;;;;;;;;8.70;99.90;;;;;;5044659;28;20344;-66
2022/11/29 12:25:56;;;;;;;;;;;8.70;99.90;;;;;;5048387;27;20004;-70
2022/11/29 12:28:24;;;;;;;;;;;8.70;99.90;;;;;;5059716;28;20386;-71
2022/11/29 12:30:59;;;;;;;;;;;8.70;99.90;;;;;;5036502;27;19925;-67
2022/11/29 12:33:27;;;;;;;;;;;8.70;99.90;;;;;;5038294;28;19931;-66
2022/11/29 12:35:56;;;;;;;;;;;8.70;99.90;;;;;;5034297;28;20351;-67
2022/11/29 12:38:28;;;;;;;;;;;8.60;99.90;;;;;;5044635;28;19939;-66
2022/11/29 12:40:56;;;;;;;;;;;8.70;99.90;;;;;;5039755;28;19929;-67
2022/11/29 12:43:22;;;;;;;;;;;8.60;99.90;;;;;;5019567;28;20028;-70
2022/11/29 12:45:53;;;;;;;;;;;8.60;99.90;;;;;;5053682;28;20408;-68
2022/11/29 12:48:42;;;;;;;;;;;8.50;99.90;;;;;;5039957;28;19979;-67
2022/11/29 12:51:26;;;;;;;;;;;8.50;99.90;;;;;;5027299;28;19924;-70
2022/11/29 12:54:11;;;;;;;;;;;8.50;99.90;;;;;;5037142;28;20007;-67
2022/11/29 12:56:57;;;;;;;;;;;8.40;99.90;;;;;;5048854;28;19940;-66
2022/11/29 12:59:22;;;;;;;;;;;8.40;99.90;;;;;;5053953;28;19929;-67
2022/11/29 13:02:14;;;;;;;;;;;8.40;99.90;;;;;;5049360;28;20453;-67
2022/11/29 13:04:58;;;;;;;;;;;8.40;99.90;;;;;;5022527;28;19950;-67
2022/11/29 13:08:00;;;;;;;;;;;8.30;99.90;;;;;;5046883;28;19921;-67
2022/11/29 13:10:25;;;;;;;;;;;8.30;99.90;;;;;;5007201;28;19963;-67
2022/11/29 13:12:52;;;;;;;;;;;8.30;99.90;;;;;;5038888;28;20351;-67
2022/11/29 13:15:19;;;;;;;;;;;8.20;99.90;;;;;;5028859;28;19971;-67
2022/11/29 13:17:45;;;;;;;;;;;8.30;99.90;;;;;;5035148;27;19926;-66
2022/11/29 13:20:13;;;;;;;;;;;8.20;99.90;;;;;;5032694;28;19937;-67
2022/11/29 13:22:45;;;;;;;;;;;8.20;99.90;;;;;;5065419;27;19920;-68
2022/11/29 13:25:15;;;;;;;;;;;8.20;99.90;;;;;;5042433;28;19935;-66
2022/11/29 13:27:52;;;;;;;;;;;8.10;99.90;;;;;;5066251;27;20290;-68
2022/11/29 13:30:18;;;;;;;;;;;8.10;99.90;;;;;;5041866;28;20378;-66
2022/11/29 13:32:49;;;;;;;;;;;8.10;99.90;;;;;;5038066;28;20024;-67
2022/11/29 13:35:21;;;;;;;;;;;8.10;99.90;;;;;;5056879;28;19983;-67
2022/11/29 13:37:52;;;;;;;;;;;8.10;99.90;;;;;;5019263;28;20244;-66
2022/11/29 13:40:21;;;;;;;;;;;8.10;99.90;;;;;;5051653;27;19929;-67
2022/11/29 13:42:53;;;;;;;;;;;8.10;99.90;;;;;;5026482;28;19929;-66
2022/11/29 13:45:37;;;;;;;;;;;8.10;99.90;;;;;;5042904;28;19967;-67
2022/11/29 13:48:19;;;;;;;;;;;8.00;99.90;;;;;;5030616;28;20073;-67
2022/11/29 13:50:45;;;;;;;;;;;8.00;99.90;;;;;;5040398;28;20309;-69
2022/11/29 13:53:16;;;;;;;;;;;8.00;99.90;;;;;;5037769;28;19925;-67
2022/11/29 13:55:47;;;;;;;;;;;8.00;99.90;;;;;;5053871;28;19931;-69
2022/11/29 13:58:13;;;;;;;;;;;7.90;99.90;;;;;;5047511;28;20003;-67
2022/11/29 14:00:42;;;;;;;;;;;8.00;99.90;;;;;;5013167;28;20007;-67
2022/11/29 14:03:17;;;;;;;;;;;8.00;99.90;;;;;;5051148;28;19936;-67
2022/11/29 14:05:47;;;;;;;;;;;8.00;99.90;;;;;;5035055;28;20289;-70
2022/11/29 14:08:22;;;;;;;;;;;8.00;99.90;;;;;;5032719;28;19929;-66
2022/11/29 14:10:48;;;;;;;;;;;8.00;99.90;;;;;;5052247;28;20283;-67
2022/11/29 14:13:14;;;;;;;;;;;8.00;99.90;;;;;;5047346;28;20399;-67
2022/11/29 14:15:40;;;;;;;;;;;8.00;99.90;;;;;;5045901;28;20009;-67
2022/11/29 14:18:26;;;;;;;;;;;7.90;99.90;;;;;;5050880;28;19936;-67
2022/11/29 14:20:56;;;;;;;;;;;7.90;99.90;;;;;;5029961;28;20530;-67
2022/11/29 14:23:32;;;;;;;;;;;7.90;99.90;;;;;;5043880;28;20279;-67
2022/11/29 14:25:58;;;;;;;;;;;7.90;99.90;;;;;;5046345;28;20386;-68
2022/11/29 14:28:23;;;;;;;;;;;7.90;99.90;;;;;;5040509;28;19932;-67
2022/11/29 14:30:49;;;;;;;;;;;7.90;99.90;;;;;;5028911;28;20391;-69
2022/11/29 14:33:21;;;;;;;;;;;7.90;99.90;;;;;;5055863;27;19928;-68
2022/11/29 14:36:05;;;;;;;;;;;7.90;99.90;;;;;;5024267;28;19929;-66
2022/11/29 14:38:34;;;;;;;;;;;7.90;99.90;;;;;;5025986;28;19928;-67
2022/11/29 14:41:19;;;;;;;;;;;7.90;99.90;;;;;;5024191;28;20380;-68
2022/11/29 14:43:45;;;;;;;;;;;7.80;99.90;;;;;;5025857;28;19976;-66
2022/11/29 14:46:13;;;;;;;;;;;7.80;99.90;;;;;;5058837;28;19980;-68
2022/11/29 14:48:45;;;;;;;;;;;7.80;99.90;;;;;;5047310;28;20434;-66
2022/11/29 14:51:13;;;;;;;;;;;7.80;99.90;;;;;;5041636;28;19932;-68
2022/11/29 14:53:39;;;;;;;;;;;7.80;99.90;;;;;;5039853;28;19929;-67
2022/11/29 14:56:23;;;;;;;;;;;7.80;99.90;;;;;;5045055;28;19976;-66
2022/11/29 14:59:09;;;;;;;;;;;7.80;99.90;;;;;;5024509;28;19929;-67
2022/11/29 15:01:35;;;;;;;;;;;7.80;99.90;;;;;;5042630;28;19946;-67